This is the latest recevied weather packets stored in our database for station/object VK2BLR. If no packets are shown the sender has not sent any weather packets the latest 10 day(s).
| Time | Temp. | Humidity | Pressure | Rain* | Wind** | Luminosity | Snow |
|---|---|---|---|---|---|---|---|
| 1787970092 | 21.11° C | 50% | 1027.2 hPa | 0 mm | - | - | - |
| 1787969191 | 21.11° C | 51% | 1027.4 hPa | 0 mm | - | - | - |
| 1787968291 | 20.56° C | 50% | 1027.5 hPa | 0 mm | - | - | - |
| 1787967391 | 20.56° C | 46% | 1027.6 hPa | 0 mm | - | - | - |
| 1787966490 | 20.56° C | 47% | 1027.4 hPa | 0 mm | - | - | - |
| 1787965591 | 21.11° C | 47% | 1027.5 hPa | 0 mm | - | - | - |
| 1787964691 | 20.56° C | 47% | 1027.7 hPa | 0 mm | - | - | - |
| 1787963791 | 20.56° C | 50% | 1027.6 hPa | 0 mm | - | - | - |
| 1787962890 | 20° C | 51% | 1027.6 hPa | 0 mm | - | - | - |
| 1787961991 | 20° C | 50% | 1027.7 hPa | 0 mm | - | - | - |
| 1787961092 | 20° C | 47% | 1027.7 hPa | 0 mm | - | - | - |
| 1787960192 | 19.44° C | 48% | 1027.6 hPa | 0 mm | - | - | - |
| 1787959290 | 18.89° C | 48% | 1027.5 hPa | 0 mm | - | - | - |
| 1787958390 | 18.33° C | 49% | 1027.4 hPa | 0 mm | - | - | - |
| 1787957492 | 17.78° C | 52% | 1027.5 hPa | 0 mm | - | - | - |
| 1787956591 | 16.67° C | 56% | 1027.4 hPa | 0 mm | - | - | - |
| 1787955691 | 16.11° C | 56% | 1027.2 hPa | 0 mm | - | - | - |
| 1787954792 | 15° C | 61% | 1027.2 hPa | 0 mm | - | - | - |
| 1787953891 | 13.89° C | 70% | 1026.8 hPa | 0 mm | - | - | - |
| 1787952991 | 11.11° C | 82% | 1026.7 hPa | 0 mm | - | - | - |
| 1787952092 | 8.33° C | 84% | 1026.5 hPa | 0 mm | - | - | - |
| 1787951191 | 6.11° C | 87% | 1026.2 hPa | 0 mm | - | - | - |
| 1787950290 | 6.11° C | 86% | 1026.1 hPa | 0 mm | - | - | - |
| 1787949391 | 6.11° C | 86% | 1025.7 hPa | 0 mm | - | - | - |
| 1787948492 | 6.11° C | 86% | 1025.5 hPa | 0 mm | - | - | - |
* Rain latest hour (hover to see other rain measurements)
** Current wind speed in m/s (hover to see current wind gust speed)